createdAt,value
2023-06-11T00:01:36.171Z,230.10
2023-06-11T00:05:39.157Z,230.65
2023-06-11T00:09:43.312Z,228.45
2023-06-11T00:13:47.710Z,230.95
2023-06-11T00:17:50.777Z,233.30
2023-06-11T00:21:54.078Z,231.38
2023-06-11T00:25:58.242Z,231.80
2023-06-11T00:30:04.692Z,232.95
2023-06-11T00:34:07.747Z,233.30
2023-06-11T00:38:11.570Z,229.68
2023-06-11T00:42:14.638Z,232.90
2023-06-11T00:46:19.604Z,230.40
2023-06-11T00:50:23.192Z,228.52
2023-06-11T00:54:26.953Z,231.20
2023-06-11T00:58:30.919Z,230.70
2023-06-11T01:02:41.369Z,230.63
2023-06-11T01:06:47.523Z,225.73
2023-06-11T01:10:50.630Z,226.70
2023-06-11T01:14:55.722Z,227.50
2023-06-11T01:19:20.495Z,228.00
2023-06-11T01:23:34.784Z,228.30
2023-06-11T01:28:04.168Z,227.75
2023-06-11T01:32:08.026Z,228.57
2023-06-11T01:36:12.055Z,227.30
2023-06-11T01:40:15.725Z,228.13
2023-06-11T01:44:21.026Z,227.05
2023-06-11T01:48:24.185Z,227.70
2023-06-11T01:52:27.219Z,225.90
2023-06-11T01:56:33.702Z,226.73
2023-06-11T02:00:38.074Z,227.50
2023-06-11T02:04:41.054Z,226.15
2023-06-11T02:08:44.412Z,225.75
2023-06-11T02:12:47.413Z,224.65
2023-06-11T02:16:51.883Z,226.80
2023-06-11T02:20:54.928Z,225.20
2023-06-11T02:24:58.268Z,224.90
2023-06-11T02:29:01.271Z,224.85
2023-06-11T02:33:05.730Z,223.70
2023-06-11T02:37:09.023Z,224.93
2023-06-11T02:41:12.035Z,223.95
2023-06-11T02:45:15.043Z,225.50
2023-06-11T02:49:19.425Z,225.27
2023-06-11T02:53:22.426Z,225.77
2023-06-11T02:57:25.458Z,224.95
2023-06-11T03:01:28.563Z,223.15
2023-06-11T03:05:33.059Z,224.60
2023-06-11T03:09:36.113Z,225.30
2023-06-11T03:13:39.223Z,223.95
2023-06-11T03:17:42.257Z,223.75
2023-06-11T03:21:46.674Z,222.80
2023-06-11T03:25:49.677Z,222.50
2023-06-11T03:29:52.678Z,222.13
2023-06-11T03:33:55.753Z,238.70
2023-06-11T03:38:00.096Z,238.10
2023-06-11T03:42:03.177Z,235.90
2023-06-11T03:46:06.244Z,235.60
2023-06-11T03:50:10.186Z,234.90
2023-06-11T03:54:14.773Z,233.80
2023-06-11T03:58:17.791Z,232.90
2023-06-11T04:02:20.897Z,231.65
2023-06-11T04:06:24.029Z,231.65
2023-06-11T04:10:28.433Z,231.50
2023-06-11T04:14:31.557Z,231.10
2023-06-11T04:18:34.690Z,229.40
2023-06-11T04:22:37.750Z,228.45
2023-06-11T04:26:42.184Z,225.73
2023-06-11T04:30:46.101Z,223.90
2023-06-11T04:34:50.274Z,225.80
2023-06-11T04:38:53.709Z,224.90
2023-06-11T04:42:58.863Z,224.63
2023-06-11T04:47:02.382Z,211.95
2023-06-11T04:51:05.919Z,208.60
2023-06-11T04:55:11.541Z,210.07
2023-06-11T04:59:16.101Z,214.13
2023-06-11T05:03:19.826Z,214.20
2023-06-11T05:07:24.888Z,211.90
2023-06-11T05:11:28.141Z,215.53
2023-06-11T05:15:33.600Z,214.93
2023-06-11T05:19:36.617Z,211.10
2023-06-11T05:23:40.551Z,212.25
2023-06-11T05:27:55.349Z,212.95
2023-06-11T05:32:01.693Z,214.00
2023-06-11T05:36:06.038Z,216.60
2023-06-11T05:40:10.405Z,217.27
2023-06-11T05:44:13.429Z,217.85
2023-06-11T05:48:18.233Z,219.35
2023-06-11T05:52:21.304Z,220.40
2023-06-11T05:56:24.306Z,222.20
2023-06-11T06:00:27.391Z,221.90
2023-06-11T06:04:31.987Z,223.10
2023-06-11T06:08:35.029Z,220.60
2023-06-11T06:12:41.132Z,222.75
2023-06-11T06:16:44.197Z,222.90
2023-06-11T06:20:48.619Z,222.00
2023-06-11T06:24:51.692Z,221.55
2023-06-11T06:28:55.929Z,223.10
2023-06-11T06:32:59.065Z,221.90
2023-06-11T06:37:03.814Z,221.60
2023-06-11T06:41:06.869Z,222.05
2023-06-11T06:45:11.317Z,220.80
2023-06-11T06:49:14.591Z,221.60
2023-06-11T06:53:19.031Z,221.60
2023-06-11T06:57:22.077Z,222.00
2023-06-11T07:01:25.147Z,219.90
2023-06-11T07:05:28.826Z,220.07
2023-06-11T07:09:33.989Z,221.32
2023-06-11T07:13:37.333Z,219.97
2023-06-11T07:17:40.895Z,217.95
2023-06-11T07:21:44.108Z,221.23
2023-06-11T07:25:50.248Z,222.02
2023-06-11T07:29:53.283Z,221.18
2023-06-11T07:34:07.630Z,220.63
2023-06-11T07:38:10.705Z,215.90
2023-06-11T07:42:15.073Z,217.02
2023-06-11T07:46:33.281Z,222.80
2023-06-11T07:50:36.341Z,227.98
2023-06-11T07:54:39.810Z,227.00
2023-06-11T07:58:44.813Z,228.05
2023-06-11T08:02:50.156Z,229.55
2023-06-11T08:06:55.365Z,230.60
2023-06-11T08:10:58.372Z,230.30
2023-06-11T08:15:02.908Z,230.20
2023-06-11T08:19:05.949Z,230.50
2023-06-11T08:23:09.081Z,230.35
2023-06-11T08:27:13.387Z,230.60
2023-06-11T08:31:17.767Z,230.40
2023-06-11T08:35:21.657Z,226.90
2023-06-11T08:39:24.893Z,230.00
2023-06-11T08:43:27.973Z,227.00
2023-06-11T08:47:33.202Z,226.10
2023-06-11T08:51:38.213Z,223.67
2023-06-11T08:55:42.365Z,226.55
2023-06-11T08:59:46.546Z,230.55
2023-06-11T09:03:51.264Z,232.53
2023-06-11T09:07:55.226Z,234.30
2023-06-11T09:11:59.344Z,234.30
2023-06-11T09:16:02.451Z,232.20
2023-06-11T09:20:09.361Z,235.40
2023-06-11T09:24:13.160Z,233.00
2023-06-11T09:28:16.184Z,232.15
2023-06-11T09:32:33.210Z,235.60
2023-06-11T09:36:39.448Z,236.75
2023-06-11T09:40:46.425Z,235.80
2023-06-11T09:44:50.841Z,231.80
2023-06-11T09:48:54.405Z,230.00
2023-06-11T09:53:00.365Z,230.67
2023-06-11T09:57:04.215Z,237.30
2023-06-11T10:01:08.135Z,241.90
2023-06-11T10:05:14.023Z,242.85
2023-06-11T10:09:18.934Z,245.00
2023-06-11T10:13:31.627Z,243.53
2023-06-11T10:17:34.804Z,243.80
2023-06-11T10:21:42.530Z,244.90
2023-06-11T10:25:55.428Z,246.70
2023-06-11T10:29:58.453Z,242.25
2023-06-11T10:34:05.183Z,241.45
2023-06-11T10:38:13.875Z,242.07
2023-06-11T10:42:24.952Z,243.02
2023-06-11T10:46:28.237Z,242.07
2023-06-11T10:50:33.223Z,244.67
2023-06-11T10:54:38.245Z,244.45
2023-06-11T10:58:43.581Z,246.30
2023-06-11T11:02:47.664Z,248.70
2023-06-11T11:06:54.045Z,249.15
2023-06-11T11:10:57.571Z,246.20
2023-06-11T11:15:03.356Z,246.55
2023-06-11T11:19:06.412Z,249.23
2023-06-11T11:23:09.566Z,244.60
2023-06-11T11:27:13.537Z,244.80
2023-06-11T11:31:19.712Z,244.43
2023-06-11T11:35:26.449Z,85.80
2023-06-11T11:39:29.571Z,11.40
2023-06-11T11:43:38.934Z,11.10
2023-06-11T11:47:47.678Z,7.70
2023-06-11T11:51:55.124Z,8.27
2023-06-11T11:56:05.888Z,9.50
2023-06-11T12:00:11.466Z,7.40
2023-06-11T12:04:16.010Z,8.97
2023-06-11T12:08:19.005Z,7.80
2023-06-11T12:12:22.051Z,8.30
2023-06-11T12:16:25.755Z,10.60
2023-06-11T12:20:30.404Z,11.75
2023-06-11T12:24:34.171Z,6.60
2023-06-11T12:28:38.579Z,7.70
2023-06-11T12:32:43.409Z,8.10
2023-06-11T12:36:48.225Z,11.07
2023-06-11T12:40:51.743Z,10.00
2023-06-11T12:44:55.286Z,8.90
2023-06-11T12:48:58.601Z,8.67
2023-06-11T12:53:05.625Z,10.00
2023-06-11T12:57:12.401Z,9.10
2023-06-11T13:01:16.092Z,7.65
2023-06-11T13:05:22.534Z,7.90
2023-06-11T13:09:28.509Z,9.43
2023-06-11T13:13:31.870Z,10.65
2023-06-11T13:17:35.337Z,9.80
2023-06-11T13:21:38.787Z,8.30
2023-06-11T13:25:43.463Z,8.30
2023-06-11T13:29:47.724Z,8.73
2023-06-11T13:33:51.051Z,10.70
2023-06-11T13:37:54.408Z,11.00
2023-06-11T13:41:59.264Z,8.10
2023-06-11T13:46:02.618Z,9.60
2023-06-11T13:50:06.913Z,7.90
2023-06-11T13:54:12.293Z,7.30
2023-06-11T13:58:17.852Z,8.20
2023-06-11T14:02:22.306Z,7.93
2023-06-11T14:06:25.928Z,8.37
2023-06-11T14:10:31.252Z,6.80
2023-06-11T14:14:36.761Z,8.48
2023-06-11T14:18:42.775Z,5.45
2023-06-11T14:22:46.071Z,8.50
2023-06-11T14:26:49.148Z,8.70
2023-06-11T14:30:53.954Z,6.70
2023-06-11T14:34:57.549Z,7.93
2023-06-11T14:39:00.619Z,7.70
2023-06-11T14:43:03.882Z,7.60
2023-06-11T14:47:08.791Z,6.27
2023-06-11T14:51:11.877Z,8.60
2023-06-11T14:55:14.988Z,7.30
2023-06-11T14:59:18.011Z,8.40
2023-06-11T15:03:22.716Z,9.10
2023-06-11T15:07:34.780Z,8.67
2023-06-11T15:11:38.960Z,8.55
2023-06-11T15:15:42.029Z,8.80
2023-06-11T15:19:46.398Z,9.23
2023-06-11T15:23:49.450Z,7.97
2023-06-11T15:27:52.527Z,8.40
2023-06-11T15:31:58.122Z,9.40
2023-06-11T15:36:02.493Z,10.93
2023-06-11T15:40:06.340Z,10.10
2023-06-11T15:44:09.387Z,9.53
2023-06-11T15:48:12.444Z,7.17
2023-06-11T15:52:16.813Z,8.55
2023-06-11T15:56:20.220Z,7.40
2023-06-11T16:00:23.248Z,9.50
2023-06-11T16:04:26.974Z,8.10
2023-06-11T16:08:31.750Z,7.25
2023-06-11T16:12:35.066Z,8.50
2023-06-11T16:16:40.711Z,8.45
2023-06-11T16:20:44.134Z,7.50
2023-06-11T16:24:48.837Z,6.22
2023-06-11T16:28:53.669Z,7.93
2023-06-11T16:32:57.083Z,7.53
2023-06-11T16:37:00.446Z,7.60
2023-06-11T16:41:06.313Z,8.40
2023-06-11T16:45:10.409Z,8.00
2023-06-11T16:49:14.095Z,8.10
2023-06-11T16:53:17.156Z,7.70
2023-06-11T16:57:21.570Z,6.20
2023-06-11T17:01:25.607Z,9.80
2023-06-11T17:05:28.667Z,8.30
2023-06-11T17:09:31.638Z,6.70
2023-06-11T17:13:36.290Z,9.45
2023-06-11T17:17:39.339Z,9.43
2023-06-11T17:21:42.443Z,8.10
2023-06-11T17:25:46.240Z,8.63
2023-06-11T17:29:50.844Z,10.70
2023-06-11T17:33:53.922Z,11.15
2023-06-11T17:37:57.960Z,8.00
2023-06-11T17:42:01.740Z,8.57
2023-06-11T17:46:06.320Z,8.40
2023-06-11T17:50:11.798Z,10.70
2023-06-11T17:54:15.266Z,12.60
2023-06-11T17:58:18.358Z,8.10
2023-06-11T18:02:22.811Z,9.15
2023-06-11T18:06:25.951Z,10.10
2023-06-11T18:10:29.011Z,7.30
2023-06-11T18:14:32.087Z,10.30
2023-06-11T18:18:36.563Z,10.30
2023-06-11T18:22:39.644Z,7.53
2023-06-11T18:26:42.657Z,10.30
2023-06-11T18:30:45.749Z,11.10
2023-06-11T18:34:50.183Z,15.00
2023-06-11T18:38:53.336Z,11.32
2023-06-11T18:42:56.360Z,12.40
2023-06-11T18:47:02.040Z,12.00
2023-06-11T18:51:06.481Z,15.60
2023-06-11T18:55:10.085Z,17.13
2023-06-11T18:59:13.326Z,11.30
2023-06-11T19:03:16.510Z,13.60
2023-06-11T19:07:21.041Z,31.60
2023-06-11T19:11:24.148Z,24.80
2023-06-11T19:15:28.276Z,253.60
2023-06-11T19:19:31.322Z,249.80
2023-06-11T19:23:35.760Z,251.13
2023-06-11T19:27:38.942Z,251.60
2023-06-11T19:35:44.978Z,245.00
2023-06-11T19:39:49.439Z,252.40
2023-06-11T19:43:52.441Z,251.20
2023-06-11T19:47:55.855Z,251.63
2023-06-11T19:51:58.973Z,251.43
2023-06-11T19:56:03.324Z,250.30
2023-06-11T20:00:07.265Z,251.20
2023-06-11T20:04:10.348Z,246.80
2023-06-11T20:08:14.924Z,249.05
2023-06-11T20:12:19.387Z,250.90
2023-06-11T20:16:26.047Z,246.77
2023-06-11T20:20:29.125Z,250.40
2023-06-11T20:24:32.147Z,247.50
2023-06-11T20:28:36.573Z,249.65
2023-06-11T20:32:39.659Z,248.20
2023-06-11T20:36:42.897Z,247.90
2023-06-11T20:40:46.593Z,246.60
2023-06-11T20:44:51.511Z,246.10
2023-06-11T20:48:54.662Z,246.50
2023-06-11T20:52:57.686Z,245.43
2023-06-11T20:57:00.911Z,247.00
2023-06-11T21:01:06.121Z,244.55
